Terminal Aerodrome Forecast
Issued by NWS Mt. Holly, NJ

Home | Current Version | Previous Version | Text Only | Print | Product List | Glossary On
Versions: 1 2 3 4 5 6 7 8 9 10 11 12 13 14
000
FTUS41 KPHI 271142
TAFRDG
TAF
KRDG 271142Z 2712/2812 VRB03KT P6SM OVC020
      TEMPO 2712/2714 5SM -TSRA OVC020CB
     FM271400 09008G15KT P6SM VCTS OVC014CB
     FM272100 09007KT 6SM +SHRA OVC015 PROB30 2721/2723 5SM -TSRA
      OVC015CB
     FM272300 09006KT P6SM OVC020 PROB30 2723/2803 4SM -SHRA
     FM280300 09005KT P6SM OVC009 PROB30 2803/2804 5SM -SHRA
     FM280400 09005KT 4SM -DZ OVC008 PROB30 2804/2806 4SM -SHRA=

USA.gov is the U.S. government's official web portal to all federal, state and local government web resources and services.